Time;durP1;ratioP1;P1;durP2;ratioP2;P2;SDS_P1;SDS_P2;PMS_P1;PMS_P2;Temp;Humidity;BMP_temperature;BMP_pressure;BME280_temperature;BME280_humidity;BME280_pressure;Samples;Min_cycle;Max_cycle;Signal;HPM_P1;HPM_P2
2022/02/11 00:05:34;;;;;;;10.23;6.47;;;;;;;3.49;100.00;101063.84;5123881;27;20217;-74
2022/02/11 00:08:00;;;;;;;11.00;6.03;;;;;;;3.49;100.00;101069.00;5121306;27;20286;-73
2022/02/11 00:10:27;;;;;;;10.70;6.27;;;;;;;3.50;100.00;101070.75;5118462;27;20697;-73
2022/02/11 00:12:54;;;;;;;17.63;7.30;;;;;;;3.51;100.00;101074.19;5121795;27;20197;-74
2022/02/11 00:15:42;;;;;;;13.83;6.87;;;;;;;3.50;100.00;101073.31;5113147;27;20239;-73
2022/02/11 00:18:12;;;;;;;11.43;6.37;;;;;;;3.51;100.00;101074.19;5122186;27;20220;-74
2022/02/11 00:20:39;;;;;;;10.23;6.10;;;;;;;3.50;100.00;101069.88;5122918;27;20733;-74
2022/02/11 00:23:07;;;;;;;10.10;5.90;;;;;;;3.51;100.00;101069.03;5121769;27;20196;-73
2022/02/11 00:25:36;;;;;;;13.63;6.43;;;;;;;3.50;100.00;101065.59;5115447;27;20711;-74
2022/02/11 00:31:03;;;;;;;11.63;6.07;;;;;;;3.48;100.00;101075.00;5122421;27;20227;-75
2022/02/11 00:33:33;;;;;;;10.87;5.87;;;;;;;3.48;100.00;101082.72;5120046;27;20623;-74
2022/02/11 00:36:02;;;;;;;10.90;6.63;;;;;;;3.49;100.00;101071.59;5121028;27;20204;-73
2022/02/11 00:38:40;;;;;;;10.93;6.03;;;;;;;3.46;100.00;101071.53;5122058;27;20200;-74
2022/02/11 00:44:40;;;;;;;8.07;5.27;;;;;;;3.46;100.00;101075.84;5084968;27;20562;-75
2022/02/11 01:03:24;;;;;;;7.57;4.47;;;;;;;3.30;100.00;101065.38;5120305;27;20205;-73
2022/02/11 01:05:52;;;;;;;6.33;3.67;;;;;;;3.28;100.00;101063.63;5112710;27;20220;-73
2022/02/11 01:08:19;;;;;;;8.77;4.23;;;;;;;3.26;100.00;101063.63;5110984;27;20736;-73
2022/02/11 01:10:45;;;;;;;7.03;4.13;;;;;;;3.23;100.00;101064.44;5113936;27;20761;-73
2022/02/11 01:13:12;;;;;;;7.70;4.20;;;;;;;3.22;100.00;101060.16;5120124;27;20208;-74
2022/02/11 01:15:43;;;;;;;8.73;4.30;;;;;;;3.21;100.00;101060.97;5128184;27;20200;-74
2022/02/11 01:18:11;;;;;;;6.60;3.90;;;;;;;3.19;100.00;101064.41;5124084;27;20197;-74
2022/02/11 01:20:47;;;;;;;7.83;3.83;;;;;;;3.19;100.00;101054.09;5116480;27;20235;-74
2022/02/11 01:23:26;;;;;;;6.10;4.00;;;;;;;3.17;100.00;101053.22;5124351;27;20193;-74
2022/02/11 01:26:07;;;;;;;5.67;3.80;;;;;;;3.17;100.00;101059.22;5117107;27;20221;-74
2022/02/11 01:28:43;;;;;;;7.87;3.67;;;;;;;3.18;100.00;101065.22;5120603;27;20204;-74
2022/02/11 01:31:18;;;;;;;5.77;4.00;;;;;;;3.17;100.00;101054.06;5119549;27;20196;-74
2022/02/11 01:34:04;;;;;;;5.17;3.20;;;;;;;3.16;100.00;101052.31;5117916;27;20249;-74
2022/02/11 01:36:46;;;;;;;5.50;3.87;;;;;;;3.15;100.00;101044.56;5120229;27;20209;-74
2022/02/11 01:39:42;;;;;;;6.33;3.40;;;;;;;3.14;100.00;101043.72;5113465;27;20224;-74
2022/02/11 01:45:24;;;;;;;6.00;3.50;;;;;;;3.13;100.00;101043.69;5039774;28;20230;-74
2022/02/11 01:51:00;;;;;;;5.33;3.10;;;;;;;3.11;100.00;101035.94;5084314;27;20236;-74
2022/02/11 01:53:35;;;;;;;7.00;3.87;;;;;;;3.11;100.00;101029.94;5117100;27;20200;-74
2022/02/11 01:56:15;;;;;;;6.80;3.50;;;;;;;3.09;100.00;101040.22;5117539;27;20192;-74
2022/02/11 02:12:53;;;;;;;5.80;3.97;;;;;;;3.08;100.00;101025.63;5119743;27;20197;-73
2022/02/11 02:15:50;;;;;;;5.67;3.40;;;;;;;3.07;100.00;101023.91;5119881;27;20223;-74
2022/02/11 02:24:05;;;;;;;3.77;2.63;;;;;;;2.64;100.00;101034.56;5121398;27;20655;-73
2022/02/11 02:26:49;;;;;;;2.97;2.40;;;;;;;2.52;100.00;101036.97;5101545;28;20908;-74
2022/02/11 02:30:17;;;;;;;4.30;2.67;;;;;;;2.45;100.00;101032.59;5099473;28;20231;-74
2022/02/11 02:32:56;;;;;;;2.83;2.23;;;;;;;2.38;100.00;101029.06;5102101;28;20674;-73
2022/02/11 02:35:44;;;;;;;5.23;1.53;;;;;;;2.25;100.00;101037.44;5100709;28;20209;-74
2022/02/11 02:57:41;;;;;;;2.70;1.17;;;;;;;1.85;100.00;101011.13;5101960;28;20304;-74
2022/02/11 03:00:39;;;;;;;4.53;1.20;;;;;;;1.74;100.00;101010.06;5098258;28;20316;-74
2022/02/11 03:14:45;;;;;;;3.67;1.27;;;;;;;1.70;100.00;100994.59;5103399;28;20197;-74
2022/02/11 03:17:48;;;;;;;6.47;1.10;;;;;;;1.69;100.00;100992.03;5100177;28;20201;-74
2022/02/11 03:50:42;;;;;;;6.87;1.57;;;;;;;1.64;100.00;100981.66;5084886;28;20230;-74
2022/02/11 03:56:22;;;;;;;3.40;1.60;;;;;;;1.71;100.00;100987.75;5084355;28;20598;-74
2022/02/11 04:21:30;;;;;;;4.83;2.10;;;;;;;1.65;100.00;100991.09;5084385;28;20198;-74
2022/02/11 04:59:54;;;;;;;3.93;1.93;;;;;;;1.76;100.00;100988.72;5087026;28;20309;-74
2022/02/11 05:02:25;;;;;;;5.03;1.63;;;;;;;1.75;100.00;100988.69;5081862;28;20587;-74
2022/02/11 05:04:52;;;;;;;5.87;2.07;;;;;;;1.72;100.00;100986.91;5086467;28;20285;-74
2022/02/11 05:07:19;;;;;;;4.97;1.90;;;;;;;1.78;100.00;100988.72;5083584;28;20694;-73
2022/02/11 05:09:45;;;;;;;5.80;2.50;;;;;;;1.76;100.00;100993.84;5081305;28;20220;-73
2022/02/11 05:12:13;;;;;;;5.40;2.30;;;;;;;1.72;100.00;100989.47;5081629;28;20197;-74
2022/02/11 05:14:39;;;;;;;3.97;2.00;;;;;;;1.70;100.00;100994.59;5079606;28;20194;-74
2022/02/11 05:17:06;;;;;;;3.53;2.10;;;;;;;1.69;100.00;100992.88;5083187;28;20206;-74
2022/02/11 05:19:32;;;;;;;7.40;2.00;;;;;;;1.68;100.00;100995.41;5082410;28;20837;-73
2022/02/11 05:21:59;;;;;;;4.50;2.10;;;;;;;1.66;100.00;101002.25;5084295;28;20288;-75
2022/02/11 05:24:25;;;;;;;4.67;2.20;;;;;;;1.68;100.00;101003.13;5084739;28;20194;-74
2022/02/11 05:26:52;;;;;;;5.37;2.40;;;;;;;1.65;100.00;101000.50;5082256;28;20678;-74
2022/02/11 05:29:19;;;;;;;3.57;2.20;;;;;;;1.64;100.00;101007.34;5083247;28;20300;-74
2022/02/11 05:31:47;;;;;;;3.90;2.80;;;;;;;1.54;100.00;101002.91;5081722;28;20201;-73
2022/02/11 05:34:13;;;;;;;5.13;2.20;;;;;;;1.42;100.00;101015.53;5082627;28;20277;-74
2022/02/11 05:36:40;;;;;;;4.43;2.30;;;;;;;1.30;100.00;101023.88;5081032;28;20197;-73
2022/02/11 05:39:06;;;;;;;4.63;2.10;;;;;;;1.20;100.00;101027.16;5077541;28;20229;-74
2022/02/11 05:41:33;;;;;;;3.23;2.00;;;;;;;1.17;100.00;101022.81;5078781;28;20222;-74
2022/02/11 05:43:59;;;;;;;2.97;2.00;;;;;;;1.19;100.00;101022.84;5077949;28;20217;-74
2022/02/11 05:46:27;;;;;;;3.53;2.20;;;;;;;1.12;100.00;101021.84;5083185;28;20207;-74
2022/02/11 05:48:54;;;;;;;3.00;2.30;;;;;;;1.10;100.00;101024.38;5081063;28;20703;-74
2022/02/11 05:51:21;;;;;;;2.97;1.90;;;;;;;1.11;100.00;101022.69;5082900;28;20202;-74
2022/02/11 05:53:47;;;;;;;6.70;2.53;;;;;;;1.08;100.00;101017.50;5082939;28;20217;-74
2022/02/11 05:56:14;;;;;;;5.27;2.20;;;;;;;1.05;100.00;101022.56;5085534;28;20322;-74
2022/02/11 05:58:40;;;;;;;3.00;2.10;;;;;;;1.04;100.00;101025.97;5078695;28;20839;-74
2022/02/11 06:01:07;;;;;;;3.57;2.30;;;;;;;1.04;100.00;101024.28;5071658;28;20205;-74
2022/02/11 06:03:34;;;;;;;4.50;2.20;;;;;;;1.06;100.00;101026.88;5080769;28;20219;-74
2022/02/11 06:06:01;;;;;;;3.80;2.40;;;;;;;1.07;100.00;101026.03;5082859;28;20209;-74
2022/02/11 06:08:28;;;;;;;3.57;2.37;;;;;;;1.06;100.00;101022.59;5078038;28;20216;-74
2022/02/11 06:10:54;;;;;;;2.53;2.23;;;;;;;1.09;100.00;101019.22;5082316;28;20833;-74
2022/02/11 06:13:21;;;;;;;4.63;2.80;;;;;;;1.04;100.00;101024.28;5084605;28;20213;-74
2022/02/11 06:15:48;;;;;;;4.67;2.70;;;;;;;1.04;100.00;101037.13;5084625;28;20725;-74
2022/02/11 06:18:15;;;;;;;4.03;2.50;;;;;;;1.02;100.00;101033.66;5084349;28;20215;-74
2022/02/11 06:20:43;;;;;;;5.13;2.53;;;;;;;1.07;100.00;101037.19;5083768;28;20214;-74
2022/02/11 06:23:09;;;;;;;4.63;3.10;;;;;;;1.07;100.00;101044.00;5082963;28;20237;-74
2022/02/11 06:25:36;;;;;;;4.87;3.10;;;;;;;1.09;100.00;101044.91;5085510;28;20633;-75
2022/02/11 06:28:03;;;;;;;4.73;2.60;;;;;;;1.15;100.00;101054.44;5084718;28;20197;-75
2022/02/11 06:30:29;;;;;;;5.07;2.87;;;;;;;1.13;100.00;101054.41;5084144;28;20209;-75
2022/02/11 06:32:56;;;;;;;5.47;3.13;;;;;;;1.15;100.00;101055.31;5083589;28;20623;-75
2022/02/11 06:35:22;;;;;;;5.70;2.90;;;;;;;1.17;100.00;101063.03;5083422;28;20587;-74
2022/02/11 06:37:50;;;;;;;5.47;2.70;;;;;;;1.17;100.00;101060.47;5084834;28;20194;-74
2022/02/11 06:40:17;;;;;;;4.63;2.93;;;;;;;1.17;100.00;101066.47;5083119;28;20249;-74
2022/02/11 06:42:44;;;;;;;8.93;6.47;;;;;;;1.18;100.00;101062.19;5084777;28;20228;-74
2022/02/11 06:45:11;;;;;;;8.93;6.17;;;;;;;1.19;100.00;101067.34;5079750;28;20190;-75
2022/02/11 06:47:37;;;;;;;10.83;7.63;;;;;;;1.17;100.00;101074.19;5086561;28;20591;-74
2022/02/11 06:50:05;;;;;;;13.47;6.23;;;;;;;1.19;100.00;101072.50;5081306;28;20213;-74
2022/02/11 06:52:31;;;;;;;8.73;4.77;;;;;;;1.19;100.00;101075.06;5078272;28;20206;-74
2022/02/11 06:54:59;;;;;;;10.37;6.63;;;;;;;1.19;100.00;101080.19;5081466;28;20206;-74
2022/02/11 06:57:26;;;;;;;12.53;8.13;;;;;;;1.18;100.00;101072.47;5085888;28;20194;-75
2022/02/11 06:59:53;;;;;;;27.43;14.90;;;;;;;1.25;100.00;101071.75;5083667;28;20225;-75
2022/02/11 07:02:20;;;;;;;13.83;7.53;;;;;;;1.21;100.00;101070.81;5079536;28;20213;-75
2022/02/11 07:04:48;;;;;;;8.53;5.30;;;;;;;1.22;100.00;101081.97;5078382;28;20304;-74
2022/02/11 07:07:14;;;;;;;8.77;4.60;;;;;;;1.21;100.00;101087.94;5081593;28;20195;-75
2022/02/11 07:09:41;;;;;;;6.73;4.13;;;;;;;1.22;100.00;101098.25;5077338;28;20221;-74
2022/02/11 07:12:10;;;;;;;8.67;4.30;;;;;;;1.25;100.00;101100.00;5086293;28;20194;-75
2022/02/11 07:14:37;;;;;;;6.47;3.80;;;;;;;1.25;100.00;101097.44;5084436;28;20186;-74
2022/02/11 07:17:04;;;;;;;8.87;4.40;;;;;;;1.28;100.00;101102.63;5089078;28;20202;-73
2022/02/11 07:19:31;;;;;;;7.50;4.03;;;;;;;1.29;100.00;101104.38;5076194;28;20225;-74
2022/02/11 07:22:00;;;;;;;5.70;3.77;;;;;;;1.29;100.00;101097.53;5086850;28;20205;-73
2022/02/11 07:24:27;;;;;;;8.17;4.30;;;;;;;1.36;100.00;101093.38;5090279;28;20220;-74
2022/02/11 07:26:54;;;;;;;5.70;3.83;;;;;;;1.38;100.00;101103.69;5084648;28;20210;-75
2022/02/11 07:29:22;;;;;;;8.97;4.30;;;;;;;1.36;100.00;101102.81;5082852;28;20213;-75
2022/02/11 07:31:48;;;;;;;8.20;4.50;;;;;;;1.37;100.00;101101.94;5085246;28;20198;-75
2022/02/11 07:34:15;;;;;;;8.40;4.37;;;;;;;1.37;100.00;101107.09;5081089;28;20268;-74
2022/02/11 07:36:42;;;;;;;11.30;4.60;;;;;;;1.36;100.00;101103.66;5081920;28;20222;-73
2022/02/11 07:39:08;;;;;;;7.90;4.90;;;;;;;1.39;100.00;101105.41;5083505;28;20218;-74
2022/02/11 07:41:35;;;;;;;9.20;5.13;;;;;;;1.44;100.00;101106.38;5079984;28;20201;-74
2022/02/11 07:44:01;;;;;;;7.17;4.27;;;;;;;1.43;100.00;101109.78;5081444;28;20213;-75
2022/02/11 07:46:29;;;;;;;7.87;4.73;;;;;;;1.38;100.00;101111.41;5085790;28;20228;-75
2022/02/11 07:48:58;;;;;;;8.77;5.10;;;;;;;1.38;100.00;101117.41;5083767;28;20222;-74
2022/02/11 07:51:24;;;;;;;7.03;4.40;;;;;;;1.35;100.00;101119.91;5080131;28;20210;-74
2022/02/11 07:53:51;;;;;;;9.73;4.27;;;;;;;1.32;100.00;101119.88;5088885;28;20201;-73
2022/02/11 07:56:18;;;;;;;7.00;4.50;;;;;;;1.35;100.00;101119.03;5082312;28;20237;-75
2022/02/11 07:58:46;;;;;;;9.33;4.07;;;;;;;1.35;100.00;101125.03;5087271;28;20652;-73
2022/02/11 08:01:14;;;;;;;9.07;4.87;;;;;;;1.37;100.00;101132.78;5080482;28;20198;-74
2022/02/11 08:03:42;;;;;;;6.23;3.97;;;;;;;1.38;100.00;101139.66;5084887;28;20766;-75
2022/02/11 08:06:09;;;;;;;8.93;4.33;;;;;;;1.39;100.00;101146.53;5081140;28;20237;-73
2022/02/11 08:08:36;;;;;;;7.80;3.90;;;;;;;1.39;100.00;101141.38;5085579;28;20201;-75
2022/02/11 08:11:02;;;;;;;8.70;4.30;;;;;;;1.38;100.00;101144.81;5083997;28;20226;-74
2022/02/11 08:13:28;;;;;;;5.10;3.67;;;;;;;1.31;100.00;101147.25;5086789;28;20190;-74
2022/02/11 08:15:55;;;;;;;8.53;4.30;;;;;;;1.31;100.00;101148.94;5080582;28;20229;-75
2022/02/11 08:18:22;;;;;;;9.60;4.60;;;;;;;1.29;100.00;101153.19;5086592;28;20287;-74
2022/02/11 08:20:50;;;;;;;9.30;5.00;;;;;;;1.29;100.00;101159.19;5079274;28;20248;-75
2022/02/11 08:23:17;;;;;;;8.03;4.30;;;;;;;1.29;100.00;101161.75;5083662;28;20300;-75
2022/02/11 08:25:45;;;;;;;7.30;4.20;;;;;;;1.31;100.00;101167.78;5081983;28;20871;-74
2022/02/11 08:28:11;;;;;;;7.27;4.17;;;;;;;1.31;100.00;101172.94;5087312;28;20212;-74
2022/02/11 08:30:38;;;;;;;10.83;4.40;;;;;;;1.29;100.00;101181.47;5084805;28;20223;-75
2022/02/11 08:33:05;;;;;;;10.47;4.37;;;;;;;1.27;100.00;101186.56;5083520;28;20566;-74
2022/02/11 08:35:32;;;;;;;8.10;4.00;;;;;;;1.20;100.00;101192.41;5078590;28;20194;-75
2022/02/11 08:37:59;;;;;;;9.10;5.70;;;;;;;1.19;100.00;101200.06;5080385;28;20210;-72
2022/02/11 08:40:26;;;;;;;7.80;4.53;;;;;;;1.10;100.00;101201.59;5081085;28;20861;-74
2022/02/11 08:42:52;;;;;;;8.40;5.20;;;;;;;1.11;100.00;101200.78;5082778;28;20210;-74
2022/02/11 08:45:19;;;;;;;9.53;4.53;;;;;;;1.06;100.00;101204.94;5081925;28;20729;-73
2022/02/11 08:47:45;;;;;;;6.70;4.60;;;;;;;1.06;100.00;101204.09;5081985;28;20287;-74
2022/02/11 08:50:18;;;;;;;10.63;4.73;;;;;;;1.09;100.00;101210.16;5086351;28;20220;-75
2022/02/11 08:52:44;;;;;;;5.37;3.80;;;;;;;1.09;100.00;101206.69;5079973;28;20207;-74
2022/02/11 08:55:19;;;;;;;9.93;4.63;;;;;;;1.13;100.00;101208.53;5084331;28;20198;-73
2022/02/11 08:57:47;;;;;;;9.40;4.57;;;;;;;1.22;100.00;101216.44;5079306;28;20201;-74
2022/02/11 09:00:15;;;;;;;6.73;4.13;;;;;;;1.23;100.00;101218.16;5086519;28;20244;-75
2022/02/11 09:02:42;;;;;;;10.77;4.73;;;;;;;1.26;100.00;101214.78;5081772;28;20198;-74
2022/02/11 09:05:09;;;;;;;10.93;4.60;;;;;;;1.29;100.00;101225.13;5085244;28;20222;-74
2022/02/11 09:07:36;;;;;;;7.07;4.53;;;;;;;1.33;100.00;101227.78;5077154;28;20675;-73
2022/02/11 09:10:05;;;;;;;8.67;4.30;;;;;;;1.40;100.00;101226.22;5081381;28;20308;-73
2022/02/11 09:12:33;;;;;;;9.80;4.47;;;;;;;1.45;100.00;101240.03;5075999;28;20278;-74
2022/02/11 09:15:00;;;;;;;8.43;4.03;;;;;;;1.42;100.00;101244.25;5082908;28;20957;-74
2022/02/11 09:17:26;;;;;;;11.07;4.47;;;;;;;1.46;100.00;101261.44;5078232;28;20208;-75
2022/02/11 09:19:53;;;;;;;8.20;4.33;;;;;;;1.46;100.00;101253.75;5086236;28;20218;-74
2022/02/11 09:22:19;;;;;;;11.17;4.07;;;;;;;1.45;100.00;101250.31;5080501;28;20206;-73
2022/02/11 09:24:46;;;;;;;10.33;4.00;;;;;;;1.47;100.00;101270.91;5080652;28;20221;-73
2022/02/11 09:27:13;;;;;;;9.60;4.37;;;;;;;1.46;100.00;101279.44;5077043;28;20606;-74
2022/02/11 09:29:41;;;;;;;7.87;3.90;;;;;;;1.46;100.00;101282.91;5082068;28;20245;-74
2022/02/11 09:32:08;;;;;;;9.50;3.80;;;;;;;1.45;100.00;101283.72;5079144;28;20216;-73
2022/02/11 09:34:37;;;;;;;7.40;3.50;;;;;;;1.42;100.00;101288.78;5081063;28;20190;-74
2022/02/11 09:37:03;;;;;;;9.40;4.13;;;;;;;1.44;100.00;101287.16;5081558;28;20577;-76
2022/02/11 09:39:30;;;;;;;5.87;3.00;;;;;;;1.46;100.00;101288.03;5080070;28;20218;-74
2022/02/11 09:41:57;;;;;;;6.90;3.20;;;;;;;1.48;100.00;101295.78;5082000;28;20213;-74
2022/02/11 09:44:27;;;;;;;5.97;3.00;;;;;;;1.57;100.00;101295.97;5083063;28;20874;-74
2022/02/11 09:46:56;;;;;;;7.40;3.23;;;;;;;1.78;100.00;101295.56;5083783;28;20213;-74
2022/02/11 09:49:23;;;;;;;8.00;4.37;;;;;;;1.86;100.00;101294.00;5083336;28;20296;-74
2022/02/11 09:51:53;;;;;;;10.60;4.50;;;;;;;2.00;100.00;101289.13;5082085;28;20777;-74
2022/02/11 09:54:21;;;;;;;7.13;3.63;;;;;;;2.01;100.00;101302.88;5082497;28;20190;-74
2022/02/11 09:56:48;;;;;;;7.77;4.13;;;;;;;2.10;100.00;101295.34;5083654;28;20199;-74
2022/02/11 09:59:15;;;;;;;8.00;3.60;;;;;;;2.21;100.00;101292.97;5083785;28;20226;-73
2022/02/11 10:01:43;;;;;;;6.33;3.77;;;;;;;2.17;100.00;101311.75;5085411;28;20197;-74
2022/02/11 10:04:12;;;;;;;5.47;3.70;;;;;;;2.08;100.00;101315.88;5077886;28;20213;-73
2022/02/11 10:06:40;;;;;;;6.50;3.83;;;;;;;2.00;100.00;101312.28;5080078;28;20205;-73
2022/02/11 10:09:06;;;;;;;7.30;3.70;;;;;;;2.03;100.00;101317.50;5078623;28;20633;-75
2022/02/11 10:11:33;;;;;;;5.67;3.40;;;;;;;2.12;100.00;101315.94;5080808;28;20202;-75
2022/02/11 10:14:21;;;;;;;5.10;3.43;;;;;;;2.21;100.00;101314.41;5076614;28;20200;-74
2022/02/11 10:17:02;;;;;;;6.80;4.00;;;;;;;2.36;100.00;101316.41;5083055;28;20281;-73
2022/02/11 10:19:41;;;;;;;6.43;4.10;;;;;;;2.54;100.00;101299.56;5078135;28;20229;-74
2022/02/11 10:22:10;;;;;;;8.97;5.10;;;;;;;2.66;100.00;101304.94;5076587;28;20282;-75
2022/02/11 10:24:36;;;;;;;6.83;4.40;;;;;;;2.57;100.00;101295.34;5081704;28;20217;-73
2022/02/11 10:27:25;;;;;;;8.17;4.87;;;;;;;2.62;100.00;101303.13;5080259;28;20304;-74
2022/02/11 10:29:55;;;;;;;7.30;4.90;;;;;;;2.59;100.00;101305.69;5080262;28;20217;-74
2022/02/11 10:32:44;;;;;;;10.13;5.73;;;;;;;2.62;100.00;101314.31;5083721;28;20217;-74
2022/02/11 10:35:14;;;;;;;7.80;4.77;;;;;;;2.73;100.00;101321.38;5081791;28;20220;-74
2022/02/11 10:38:10;;;;;;;10.47;5.40;;;;;;;2.69;100.00;101319.56;5081815;28;20217;-73
2022/02/11 10:40:40;;;;;;;8.23;4.90;;;;;;;2.67;100.00;101322.09;5082526;28;20808;-75
2022/02/11 10:43:19;;;;;;;6.97;4.00;;;;;;;2.69;100.00;101322.13;5082374;28;20201;-75
2022/02/11 10:45:45;;;;;;;10.43;4.20;;;;;;;2.82;100.00;101324.94;5084878;28;20694;-75
2022/02/11 10:48:15;;;;;;;8.90;4.90;;;;;;;3.00;100.00;101326.09;5086277;28;20197;-75
2022/02/11 10:50:47;;;;;;;11.07;5.00;;;;;;;2.87;100.00;101322.47;5085529;28;20698;-74
2022/02/11 10:53:21;;;;;;;10.30;5.50;;;;;;;2.92;100.00;101320.84;5087744;28;20709;-75
2022/02/11 10:55:49;;;;;;;7.70;5.23;;;;;;;2.96;100.00;101311.44;5082483;28;20236;-74
2022/02/11 10:58:16;;;;;;;15.17;6.70;;;;;;;3.11;100.00;101319.38;5083844;28;20209;-72
2022/02/11 11:00:43;;;;;;;10.23;5.80;;;;;;;3.11;100.00;101316.81;5084807;28;20283;-74
2022/02/11 11:03:10;;;;;;;11.73;5.73;;;;;;;2.97;100.00;101320.88;5085983;28;20321;-73
2022/02/11 11:05:37;;;;;;;10.63;6.40;;;;;;;2.94;100.00;101324.28;5084495;28;20229;-75
2022/02/11 11:08:06;;;;;;;9.90;5.37;;;;;;;3.03;100.00;101326.16;5086994;28;20200;-74
2022/02/11 11:10:34;;;;;;;8.90;5.20;;;;;;;2.97;100.00;101329.50;5083052;28;20268;-74
2022/02/11 11:13:03;;;;;;;9.73;5.70;;;;;;;3.11;100.00;101321.09;5085151;28;20723;-74
2022/02/11 11:15:30;;;;;;;7.87;5.47;;;;;;;3.24;100.00;101317.88;5079499;28;20202;-74
2022/02/11 11:17:57;;;;;;;8.97;5.50;;;;;;;3.32;100.00;101318.00;5086772;28;20769;-73
2022/02/11 11:20:25;;;;;;;11.23;5.33;;;;;;;3.25;100.00;101327.34;5080342;28;20242;-73
2022/02/11 11:23:02;;;;;;;6.00;4.60;;;;;;;3.39;100.00;101331.00;5087594;28;20241;-75
2022/02/11 11:25:52;;;;;;;8.10;4.97;;;;;;;3.34;100.00;101335.22;5081117;28;20365;-74
2022/02/11 11:28:43;;;;;;;13.17;4.90;;;;;;;3.30;100.00;101330.00;5080328;28;20203;-73
2022/02/11 11:31:15;;;;;;;7.87;4.87;;;;;;;3.38;100.00;101334.41;5083812;28;20666;-75
2022/02/11 11:33:42;;;;;;;6.40;4.37;;;;;;;3.34;100.00;101330.06;5086013;28;20198;-76
2022/02/11 11:36:10;;;;;;;5.00;3.90;;;;;;;3.34;100.00;101330.06;5083633;28;20200;-75
2022/02/11 11:38:44;;;;;;;4.03;3.07;;;;;;;3.32;100.00;101333.47;5081715;28;20201;-74
2022/02/11 11:41:16;;;;;;;4.87;3.37;;;;;;;3.36;100.00;101335.22;5078046;28;20197;-74
2022/02/11 11:43:44;;;;;;;5.37;3.40;;;;;;;3.44;100.00;101325.91;5087477;28;20190;-74
2022/02/11 11:46:31;;;;;;;3.83;3.43;;;;;;;3.47;100.00;101320.78;5081024;28;20996;-74
2022/02/11 11:48:59;;;;;;;7.20;3.33;;;;;;;3.45;100.00;101322.50;5084205;28;20309;-74
2022/02/11 11:51:27;;;;;;;5.50;3.23;;;;;;;3.48;100.00;101316.50;5079829;28;20209;-73
2022/02/11 11:54:22;;;;;;;4.57;3.40;;;;;;;3.55;100.00;101314.03;5079406;28;20220;-73
2022/02/11 11:56:51;;;;;;;6.90;3.23;;;;;;;3.65;100.00;101322.75;5079946;28;20577;-75
2022/02/11 11:59:19;;;;;;;6.17;3.23;;;;;;;3.63;100.00;101315.84;5084263;28;20218;-74
2022/02/11 12:01:57;;;;;;;3.80;3.10;;;;;;;3.68;100.00;101324.53;5075069;28;20206;-74
2022/02/11 12:04:26;;;;;;;4.30;2.83;;;;;;;3.70;100.00;101328.00;5102062;27;20273;-74
2022/02/11 12:06:54;;;;;;;5.87;4.20;;;;;;;3.70;100.00;101328.00;5078343;28;20200;-74
2022/02/11 12:09:21;;;;;;;6.93;4.00;;;;;;;3.76;100.00;101334.09;5084821;28;20904;-74
2022/02/11 12:11:53;;;;;;;6.07;3.30;;;;;;;3.77;100.00;101340.97;5080717;28;20229;-74
2022/02/11 12:14:19;;;;;;;5.10;3.63;;;;;;;3.76;100.00;101330.63;5085574;28;20556;-74
2022/02/11 12:16:46;;;;;;;9.17;3.30;;;;;;;3.65;100.00;101335.66;5077680;28;20211;-72
2022/02/11 12:19:13;;;;;;;5.77;3.30;;;;;;;3.67;100.00;101335.69;5077339;28;20229;-75
2022/02/11 12:21:39;;;;;;;7.23;2.90;;;;;;;3.58;100.00;101341.56;5079922;28;20203;-75
2022/02/11 12:29:37;;;;;;;5.43;3.00;;;;;;;3.41;100.00;101351.63;5083203;28;20612;-75
2022/02/11 12:32:04;;;;;;;5.00;2.90;;;;;;;3.33;100.00;101345.50;5078166;28;20560;-74
2022/02/11 12:34:30;;;;;;;6.63;2.70;;;;;;;3.24;100.00;101351.41;5085916;28;20202;-74
2022/02/11 12:37:08;;;;;;;4.40;2.63;;;;;;;3.06;100.00;101357.13;5077410;28;20206;-74
2022/02/11 12:39:34;;;;;;;4.77;2.90;;;;;;;2.94;100.00;101362.06;5080900;28;20226;-75
2022/02/11 12:42:02;;;;;;;6.47;3.00;;;;;;;2.91;100.00;101359.44;5071799;28;20563;-74
2022/02/11 12:44:30;;;;;;;6.70;2.80;;;;;;;2.89;100.00;101361.13;5081636;28;20579;-75
2022/02/11 12:46:59;;;;;;;4.13;3.20;;;;;;;2.87;100.00;101365.34;5077572;28;20769;-74
2022/02/11 12:49:26;;;;;;;6.37;4.20;;;;;;;2.77;100.00;101366.94;5085051;28;20233;-73
2022/02/11 12:51:54;;;;;;;10.63;5.43;;;;;;;2.76;100.00;101375.47;5080210;28;20202;-74
2022/02/11 12:54:21;;;;;;;6.53;4.70;;;;;;;2.70;100.00;101373.66;5085117;28;20206;-73
2022/02/11 12:57:00;;;;;;;6.70;4.60;;;;;;;2.62;100.00;101375.22;5084523;28;20209;-74
2022/02/11 12:59:29;;;;;;;4.90;3.73;;;;;;;2.63;100.00;101382.13;5083576;28;20288;-75
2022/02/11 13:01:55;;;;;;;4.60;3.77;;;;;;;2.59;100.00;101383.78;5078461;28;20563;-74
2022/02/11 13:04:22;;;;;;;7.33;4.10;;;;;;;2.54;100.00;101384.53;5082282;28;20198;-74
2022/02/11 13:06:48;;;;;;;7.00;3.77;;;;;;;2.50;100.00;101377.56;5078007;28;20206;-75
2022/02/11 13:09:18;;;;;;;5.73;4.00;;;;;;;2.45;100.00;101388.66;5081350;28;20222;-73
2022/02/11 13:11:45;;;;;;;10.83;7.20;;;;;;;2.46;100.00;101382.69;5078501;28;20206;-74
2022/02/11 13:14:12;;;;;;;113.43;57.60;;;;;;;2.46;100.00;101379.22;5086860;28;20252;-74
2022/02/11 13:16:40;;;;;;;13.67;10.67;;;;;;;2.43;100.00;101389.47;5079239;28;20271;-74
2022/02/11 13:19:10;;;;;;;10.47;6.20;;;;;;;2.39;100.00;101400.53;5081901;28;20229;-75
2022/02/11 13:21:36;;;;;;;5.60;4.03;;;;;;;2.23;100.00;101389.06;5079732;28;20565;-74
2022/02/11 13:24:04;;;;;;;4.60;3.60;;;;;;;2.12;100.00;101403.41;5081145;28;20204;-74
2022/02/11 13:26:32;;;;;;;5.73;3.57;;;;;;;2.03;100.00;101410.09;5077602;28;20230;-74
2022/02/11 13:28:59;;;;;;;7.57;4.00;;;;;;;2.04;100.00;101409.28;5079800;28;20308;-75
2022/02/11 13:31:26;;;;;;;5.17;3.90;;;;;;;2.09;100.00;101396.50;5076349;28;20245;-74
2022/02/11 13:34:04;;;;;;;6.80;4.07;;;;;;;2.01;100.00;101396.34;5076059;28;20285;-73
2022/02/11 13:36:31;;;;;;;5.20;3.97;;;;;;;2.00;100.00;101407.47;5075548;28;20191;-74
2022/02/11 13:39:00;;;;;;;5.70;4.37;;;;;;;1.93;100.00;101417.59;5081089;28;20563;-75
2022/02/11 13:41:29;;;;;;;5.27;4.23;;;;;;;1.82;100.00;101413.06;5078537;28;20292;-75
2022/02/11 13:43:59;;;;;;;5.70;4.60;;;;;;;1.79;100.00;101418.13;5075173;28;20194;-73
2022/02/11 13:46:27;;;;;;;6.37;4.43;;;;;;;1.79;100.00;101419.84;5074272;28;20255;-73
2022/02/11 13:48:58;;;;;;;7.97;4.80;;;;;;;1.80;100.00;101419.03;5075045;28;20221;-74
2022/02/11 13:51:26;;;;;;;6.77;4.60;;;;;;;1.81;100.00;101416.50;5078108;28;20284;-73
2022/02/11 13:53:54;;;;;;;8.77;4.93;;;;;;;1.86;100.00;101417.44;5074593;28;20222;-74
2022/02/11 13:56:23;;;;;;;8.57;4.97;;;;;;;1.92;100.00;101418.41;5070641;28;20202;-73
2022/02/11 13:59:06;;;;;;;7.97;5.23;;;;;;;1.92;100.00;101427.03;5076120;28;20214;-73
2022/02/11 14:01:34;;;;;;;8.13;5.37;;;;;;;1.93;100.00;101428.75;5074327;28;20244;-73
2022/02/11 14:04:03;;;;;;;7.57;5.50;;;;;;;1.92;100.00;101427.03;5074451;28;20208;-73
2022/02/11 14:06:36;;;;;;;7.47;5.50;;;;;;;1.95;100.00;101436.50;5074483;28;20249;-73
2022/02/11 14:09:05;;;;;;;7.43;5.27;;;;;;;1.97;100.00;101437.38;5079828;28;20218;-73
2022/02/11 14:11:35;;;;;;;10.13;6.20;;;;;;;1.96;100.00;101448.53;5083837;28;20205;-74
2022/02/11 14:14:09;;;;;;;6.17;5.37;;;;;;;1.92;100.00;101455.31;5073289;28;20213;-74
2022/02/11 14:16:36;;;;;;;7.53;5.40;;;;;;;1.91;100.00;101452.69;5075368;28;20899;-73
2022/02/11 14:19:03;;;;;;;6.97;5.33;;;;;;;1.97;100.00;101450.25;5075979;28;20214;-74
2022/02/11 14:21:30;;;;;;;9.57;5.93;;;;;;;2.05;100.00;101451.28;5073008;28;20202;-75
2022/02/11 14:23:57;;;;;;;11.83;8.23;;;;;;;2.09;100.00;101458.22;5075649;28;20212;-74
2022/02/11 14:26:24;;;;;;;9.47;6.60;;;;;;;2.06;100.00;101465.91;5079678;28;20289;-74
2022/02/11 14:28:51;;;;;;;8.93;7.93;;;;;;;2.01;100.00;101460.66;5072087;28;20230;-75
2022/02/11 14:31:17;;;;;;;11.00;7.20;;;;;;;2.04;100.00;101455.59;5075166;28;20194;-74
2022/02/11 14:33:44;;;;;;;9.40;6.53;;;;;;;2.13;100.00;101460.06;5073789;28;20207;-75
2022/02/11 14:36:10;;;;;;;10.10;6.77;;;;;;;2.17;100.00;101463.56;5078185;28;20197;-75
2022/02/11 14:38:38;;;;;;;8.80;7.00;;;;;;;2.20;100.00;101468.75;5075179;28;20213;-74